createdAt,value
2023-03-07T00:00:01.115Z,31.5
2023-03-07T00:01:01.115Z,31.5
2023-03-07T00:02:01.138Z,31.6
2023-03-07T00:03:01.271Z,31.8
2023-03-07T00:04:01.599Z,31.9
2023-03-07T00:05:01.252Z,31.9
2023-03-07T00:06:01.159Z,31.7
2023-03-07T00:07:01.156Z,31.7
2023-03-07T00:08:01.145Z,32.1
2023-03-07T00:09:01.064Z,32.3
2023-03-07T00:10:01.057Z,32.5
2023-03-07T00:11:01.072Z,32.8
2023-03-07T00:12:01.250Z,32.9
2023-03-07T00:13:01.454Z,32.9
2023-03-07T00:14:01.100Z,32.9
2023-03-07T00:15:01.046Z,32.8
2023-03-07T00:16:01.101Z,32.6
2023-03-07T00:17:01.252Z,32.4
2023-03-07T00:18:02.566Z,32.3
2023-03-07T00:19:01.117Z,32.1
2023-03-07T00:20:01.453Z,31.9
2023-03-07T00:21:01.147Z,31.6
2023-03-07T00:22:01.132Z,31.6
2023-03-07T00:23:01.153Z,31.6
2023-03-07T00:24:01.200Z,31.6
2023-03-07T00:25:01.046Z,31.6
2023-03-07T00:26:01.058Z,31.6
2023-03-07T00:27:01.059Z,31.3
2023-03-07T00:28:01.173Z,31
2023-03-07T00:29:01.156Z,31
2023-03-07T00:30:01.178Z,30.7
2023-03-07T00:31:01.228Z,30.4
2023-03-07T00:32:01.089Z,30.3
2023-03-07T00:33:01.092Z,30.2
2023-03-07T00:34:01.096Z,30.2
2023-03-07T00:35:01.117Z,29.9
2023-03-07T00:36:01.166Z,29.8
2023-03-07T00:37:01.610Z,29.8
2023-03-07T00:38:01.510Z,29.8
2023-03-07T00:39:01.136Z,29.8
2023-03-07T00:40:01.140Z,29.8
2023-03-07T00:41:01.150Z,29.8
2023-03-07T00:42:01.156Z,29.5
2023-03-07T00:43:01.162Z,29.4
2023-03-07T00:44:01.077Z,29.5
2023-03-07T00:45:01.445Z,29.5
2023-03-07T00:46:01.137Z,29.5
2023-03-07T00:47:01.066Z,29.5
2023-03-07T00:48:01.110Z,29.3
2023-03-07T00:49:01.107Z,29.1
2023-03-07T00:50:01.115Z,29.1
2023-03-07T00:51:01.146Z,28.9
2023-03-07T00:52:01.118Z,28.9
2023-03-07T00:53:01.364Z,28.8
2023-03-07T00:54:02.559Z,28.7
2023-03-07T00:55:02.592Z,28.7
2023-03-07T00:56:03.947Z,28.6
2023-03-07T00:57:01.316Z,28.4
2023-03-07T00:58:01.402Z,28.2
2023-03-07T00:59:01.171Z,27.9
2023-03-07T01:00:01.071Z,27.9
2023-03-07T01:01:05.950Z,28
2023-03-07T01:02:01.479Z,27.9
2023-03-07T01:03:01.191Z,27.9
2023-03-07T01:04:01.120Z,27.9
2023-03-07T01:05:01.096Z,28
2023-03-07T01:06:09.665Z,28.1
2023-03-07T01:07:01.126Z,28.2
2023-03-07T01:08:01.146Z,28.1
2023-03-07T01:09:01.128Z,27.8
2023-03-07T01:10:01.133Z,27.5
2023-03-07T01:11:11.600Z,27.3
2023-03-07T01:12:01.157Z,27.4
2023-03-07T01:13:01.152Z,27.7
2023-03-07T01:14:01.049Z,27.7
2023-03-07T01:15:01.166Z,27.8
2023-03-07T01:16:15.511Z,27.8
2023-03-07T01:17:01.344Z,27.9
2023-03-07T01:18:02.581Z,27.7
2023-03-07T01:19:01.086Z,27.4
2023-03-07T01:20:01.082Z,27.3
2023-03-07T01:21:01.062Z,27.2
2023-03-07T01:22:01.082Z,27.3
2023-03-07T01:23:01.860Z,27.5
2023-03-07T01:24:01.534Z,27.5
2023-03-07T01:25:01.871Z,27.6
2023-03-07T01:26:01.935Z,27.4
2023-03-07T01:27:01.553Z,27.5
2023-03-07T01:28:00.636Z,27.7
2023-03-07T01:29:00.357Z,27.8
2023-03-07T01:30:00.108Z,27.9
2023-03-07T01:30:59.711Z,28
2023-03-07T01:32:01.428Z,28.3
2023-03-07T01:33:01.104Z,28.2
2023-03-07T01:34:01.241Z,28.3
2023-03-07T01:35:01.463Z,28.1
2023-03-07T01:36:01.187Z,28.2
2023-03-07T01:37:01.105Z,28.2
2023-03-07T01:38:01.100Z,28.3
2023-03-07T01:39:01.114Z,28.1
2023-03-07T01:40:01.111Z,28
2023-03-07T01:41:01.050Z,28
2023-03-07T01:42:00.907Z,28
2023-03-07T01:43:00.630Z,28
2023-03-07T01:44:00.316Z,28.1
2023-03-07T01:45:00.052Z,28.3
2023-03-07T01:45:59.716Z,28.6
2023-03-07T01:47:01.376Z,28.8
2023-03-07T01:48:02.080Z,28.8
2023-03-07T01:49:02.082Z,28.9
2023-03-07T01:50:01.555Z,28.9
2023-03-07T01:51:01.088Z,28.9
2023-03-07T01:52:01.103Z,28.8
2023-03-07T01:53:01.102Z,28.7
2023-03-07T01:54:01.120Z,28.5
2023-03-07T01:55:01.104Z,28.6
2023-03-07T01:56:01.108Z,28.7
2023-03-07T01:57:00.748Z,28.6
2023-03-07T01:58:00.506Z,28.5
2023-03-07T01:59:00.206Z,28.7
2023-03-07T01:59:59.902Z,28.7
2023-03-07T02:00:59.627Z,28.5
2023-03-07T02:02:01.723Z,28.7
2023-03-07T02:03:02.045Z,28.5
2023-03-07T02:04:01.484Z,28.3
2023-03-07T02:05:01.064Z,28.3
2023-03-07T02:06:01.086Z,28.3
2023-03-07T02:07:01.080Z,28.3
2023-03-07T02:08:01.094Z,28.2
2023-03-07T02:09:01.110Z,28.1
2023-03-07T02:10:01.345Z,28.2
2023-03-07T02:11:01.363Z,28.2
2023-03-07T02:12:02.548Z,28
2023-03-07T02:13:01.073Z,27.9
2023-03-07T02:14:01.814Z,27.9
2023-03-07T02:15:01.127Z,28
2023-03-07T02:16:01.220Z,27.9
2023-03-07T02:17:02.071Z,27.8
2023-03-07T02:18:01.386Z,27.7
2023-03-07T02:19:01.358Z,27.8
2023-03-07T02:20:02.184Z,27.9
2023-03-07T02:21:01.189Z,27.9
2023-03-07T02:22:01.984Z,27.9
2023-03-07T02:23:01.907Z,28
2023-03-07T02:24:01.078Z,27.8
2023-03-07T02:25:01.073Z,27.8
2023-03-07T02:26:01.092Z,27.8
2023-03-07T02:27:01.798Z,27.5
2023-03-07T02:28:01.106Z,27.6
2023-03-07T02:29:00.741Z,27.6
2023-03-07T02:30:01.251Z,27.4
2023-03-07T02:31:01.369Z,27.4
2023-03-07T02:32:01.127Z,27.5
2023-03-07T02:33:01.143Z,27.6
2023-03-07T02:34:01.130Z,27.4
2023-03-07T02:35:01.144Z,27.4
2023-03-07T02:36:01.187Z,27.4
2023-03-07T02:37:01.230Z,27.4
2023-03-07T02:38:01.500Z,27.3
2023-03-07T02:39:01.450Z,27.2
2023-03-07T02:40:01.155Z,27.2
2023-03-07T02:41:01.174Z,27.1
2023-03-07T02:42:03.993Z,27
2023-03-07T02:43:01.906Z,27
2023-03-07T02:44:01.064Z,27.2
2023-03-07T02:45:00.511Z,27.2
2023-03-07T02:46:00.550Z,27
2023-03-07T02:47:06.351Z,27.2
2023-03-07T02:48:01.199Z,27.1
2023-03-07T02:49:01.129Z,26.9
2023-03-07T02:50:01.131Z,26.8
2023-03-07T02:51:01.144Z,26.7
2023-03-07T02:52:11.009Z,26.7
2023-03-07T02:53:02.508Z,26.8
2023-03-07T02:54:01.071Z,26.8
2023-03-07T02:55:01.077Z,26.8
2023-03-07T02:56:01.079Z,27
2023-03-07T02:57:15.476Z,27.2
2023-03-07T02:58:01.461Z,27.4
2023-03-07T02:59:01.265Z,27.3
2023-03-07T03:00:01.379Z,27
2023-03-07T03:01:01.187Z,27.1
2023-03-07T03:02:01.125Z,26.9
2023-03-07T03:03:01.130Z,27.1
2023-03-07T03:04:01.079Z,27
2023-03-07T03:05:01.093Z,27
2023-03-07T03:06:01.158Z,27.1
2023-03-07T03:07:01.185Z,27.1
2023-03-07T03:08:01.268Z,27
2023-03-07T03:09:01.185Z,27
2023-03-07T03:10:01.088Z,27.2
2023-03-07T03:11:01.066Z,27.3
2023-03-07T03:12:01.113Z,27.4
2023-03-07T03:13:01.099Z,27.6
2023-03-07T03:14:01.098Z,27.7
2023-03-07T03:15:01.052Z,28
2023-03-07T03:16:01.117Z,27.9
2023-03-07T03:17:01.137Z,27.9
2023-03-07T03:18:01.502Z,27.8
2023-03-07T03:19:02.110Z,27.8
2023-03-07T03:20:01.154Z,28
2023-03-07T03:21:01.360Z,28
2023-03-07T03:22:02.703Z,27.8
2023-03-07T03:23:02.574Z,27.8
2023-03-07T03:24:01.729Z,27.7
2023-03-07T03:25:01.217Z,27.5
2023-03-07T03:26:01.553Z,27.6
2023-03-07T03:27:02.168Z,27.8
2023-03-07T03:28:01.179Z,27.7
2023-03-07T03:29:01.075Z,27.7
2023-03-07T03:30:01.089Z,27.8
2023-03-07T03:31:01.630Z,27.5
2023-03-07T03:32:01.116Z,27.4
2023-03-07T03:33:01.101Z,27.1
2023-03-07T03:34:01.830Z,27.1
2023-03-07T03:35:01.457Z,27.1
2023-03-07T03:36:01.279Z,27.1
2023-03-07T03:37:01.134Z,27
2023-03-07T03:38:01.148Z,26.9
2023-03-07T03:39:01.155Z,26.7
2023-03-07T03:40:01.169Z,26.6
2023-03-07T03:41:01.151Z,26.6
2023-03-07T03:42:01.415Z,26.4
2023-03-07T03:43:01.072Z,26.4
2023-03-07T03:44:01.206Z,26.4
2023-03-07T03:45:01.129Z,26.4
2023-03-07T03:46:01.102Z,26.2
2023-03-07T03:47:01.210Z,26.1
2023-03-07T03:48:01.133Z,25.9
2023-03-07T03:49:01.443Z,25.9
2023-03-07T03:50:01.121Z,25.8
2023-03-07T03:51:01.544Z,25.6
2023-03-07T03:52:00.917Z,25.4
2023-03-07T03:53:01.058Z,25.4
2023-03-07T03:54:01.044Z,25.4
2023-03-07T03:55:01.804Z,25.3
2023-03-07T03:56:01.142Z,25.2
2023-03-07T03:57:01.525Z,25
2023-03-07T03:58:02.609Z,25
2023-03-07T03:59:01.135Z,24.9
2023-03-07T04:00:01.893Z,24.9
2023-03-07T04:01:02.304Z,24.8
2023-03-07T04:02:01.507Z,24.6
2023-03-07T04:03:01.214Z,24.5
2023-03-07T04:04:01.919Z,24.7
2023-03-07T04:05:01.304Z,24.7
2023-03-07T04:06:01.435Z,24.6
2023-03-07T04:07:01.169Z,24.6
2023-03-07T04:08:01.134Z,24.6
2023-03-07T04:09:01.056Z,24.5
2023-03-07T04:10:01.141Z,24.5
2023-03-07T04:11:01.068Z,24.4
2023-03-07T04:12:01.131Z,24.2
2023-03-07T04:13:01.068Z,24.3
2023-03-07T04:14:01.363Z,24.3
2023-03-07T04:15:01.414Z,24.1
2023-03-07T04:16:01.174Z,24.1
2023-03-07T04:17:01.078Z,23.8
2023-03-07T04:18:03.409Z,23.8
2023-03-07T04:19:00.779Z,23.6
2023-03-07T04:20:00.476Z,23.6
2023-03-07T04:21:00.182Z,23.5
2023-03-07T04:21:59.983Z,23.4
2023-03-07T04:23:05.224Z,23.4
2023-03-07T04:24:01.509Z,23.4
2023-03-07T04:25:02.217Z,23.3
2023-03-07T04:26:01.202Z,23.2
2023-03-07T04:27:01.135Z,23.2
2023-03-07T04:28:08.686Z,23
2023-03-07T04:29:01.151Z,22.8
2023-03-07T04:30:01.074Z,22.8
2023-03-07T04:31:01.158Z,22.7
2023-03-07T04:32:01.104Z,22.7
2023-03-07T04:33:10.963Z,22.5
2023-03-07T04:34:01.485Z,22.7
2023-03-07T04:35:01.682Z,22.6
2023-03-07T04:36:01.260Z,22.5
2023-03-07T04:37:01.242Z,22.6
2023-03-07T04:38:12.813Z,22.6
2023-03-07T04:39:01.914Z,22.6
2023-03-07T04:40:01.425Z,22.6
2023-03-07T04:41:01.127Z,22.6
2023-03-07T04:42:01.196Z,22.6
2023-03-07T04:43:16.722Z,22.6
2023-03-07T04:44:01.151Z,22.5
2023-03-07T04:45:04.409Z,22.4
2023-03-07T04:46:01.204Z,22.4
2023-03-07T04:47:01.177Z,22.6
2023-03-07T04:48:01.062Z,22.6
2023-03-07T04:49:01.063Z,22.6
2023-03-07T04:50:01.101Z,22.6
2023-03-07T04:51:01.549Z,22.6
2023-03-07T04:52:01.463Z,22.6
2023-03-07T04:53:01.485Z,22.7
2023-03-07T04:54:01.806Z,22.8
2023-03-07T04:55:01.710Z,22.9
2023-03-07T04:56:01.823Z,22.8
2023-03-07T04:57:01.122Z,22.9
2023-03-07T04:58:01.118Z,22.7
2023-03-07T04:59:01.733Z,22.5
2023-03-07T05:00:01.144Z,22.7
2023-03-07T05:01:01.192Z,22.8
2023-03-07T05:02:01.522Z,22.7
2023-03-07T05:03:01.522Z,22.6
2023-03-07T05:04:01.849Z,22.5
2023-03-07T05:05:01.184Z,22.3
2023-03-07T05:06:01.862Z,22.3
2023-03-07T05:07:04.590Z,22.1
2023-03-07T05:08:01.762Z,21.7
2023-03-07T05:09:01.183Z,21.2
2023-03-07T05:10:01.389Z,21
2023-03-07T05:11:01.449Z,20.7
2023-03-07T05:12:02.278Z,20.6
2023-03-07T05:13:04.298Z,20.6
2023-03-07T05:14:00.802Z,20.6
2023-03-07T05:15:00.437Z,20.1
2023-03-07T05:16:00.092Z,20
2023-03-07T05:16:59.789Z,20
2023-03-07T05:18:01.451Z,19.9
2023-03-07T05:19:04.380Z,19.5
2023-03-07T05:20:04.179Z,19.5
2023-03-07T05:21:01.618Z,19.3
2023-03-07T05:22:01.082Z,19
2023-03-07T05:23:01.074Z,18.9
2023-03-07T05:24:01.076Z,18.5
2023-03-07T05:25:01.329Z,17.8
2023-03-07T05:26:01.054Z,17.8
2023-03-07T05:27:01.135Z,17.6
2023-03-07T05:28:01.111Z,17.4
2023-03-07T05:29:01.513Z,17.3
2023-03-07T05:30:01.088Z,17.1
2023-03-07T05:31:01.232Z,17
2023-03-07T05:32:01.963Z,16.8
2023-03-07T05:33:01.138Z,16.5
2023-03-07T05:34:00.841Z,16.6
2023-03-07T05:35:00.527Z,16.3
2023-03-07T05:36:00.406Z,16.1
2023-03-07T05:37:00.143Z,16.1
2023-03-07T05:37:59.830Z,15.7
2023-03-07T05:39:02.260Z,15.6
2023-03-07T05:40:02.873Z,15.6
2023-03-07T05:41:01.958Z,15.5
2023-03-07T05:42:02.012Z,15.3
2023-03-07T05:43:01.108Z,15.3
2023-03-07T05:44:01.073Z,14.7
2023-03-07T05:45:01.546Z,14.9
2023-03-07T05:46:01.507Z,14.9
2023-03-07T05:47:01.458Z,14.7
2023-03-07T05:48:02.128Z,14.3
2023-03-07T05:49:01.077Z,14.1
2023-03-07T05:50:01.757Z,13.9
2023-03-07T05:51:01.562Z,13.7
2023-03-07T05:52:01.766Z,13.8
2023-03-07T05:53:01.766Z,13.9
2023-03-07T05:54:01.053Z,13.9
2023-03-07T05:55:01.577Z,14
2023-03-07T05:56:02.478Z,14
2023-03-07T05:57:01.209Z,13.7
2023-03-07T05:58:01.387Z,13.5
2023-03-07T05:59:00.935Z,13.4
2023-03-07T06:00:01.136Z,12.9
2023-03-07T06:01:01.132Z,13.1
2023-03-07T06:02:01.143Z,13.3
2023-03-07T06:03:01.972Z,13.1
2023-03-07T06:04:01.192Z,13.2
2023-03-07T06:05:01.159Z,13.1
2023-03-07T06:06:01.146Z,13
2023-03-07T06:07:01.159Z,12.7
2023-03-07T06:08:01.157Z,13
2023-03-07T06:09:03.503Z,12.9
2023-03-07T06:10:01.854Z,13.1
2023-03-07T06:11:01.217Z,13.1
2023-03-07T06:12:01.087Z,13
2023-03-07T06:13:00.874Z,13.2
2023-03-07T06:14:05.638Z,13.4
2023-03-07T06:15:00.674Z,13.7
2023-03-07T06:16:00.519Z,13.8
2023-03-07T06:17:00.208Z,14.1
2023-03-07T06:17:59.887Z,14.3
2023-03-07T06:19:07.489Z,14.4
2023-03-07T06:20:01.061Z,14.7
2023-03-07T06:21:01.140Z,14.9
2023-03-07T06:22:01.152Z,15.1
2023-03-07T06:23:01.254Z,15.5
2023-03-07T06:24:11.382Z,15.7
2023-03-07T06:25:08.154Z,16.3
2023-03-07T06:26:01.207Z,16.6
2023-03-07T06:27:01.076Z,17
2023-03-07T06:28:01.914Z,17.3
2023-03-07T06:29:15.100Z,17.5
2023-03-07T06:30:01.723Z,17.8
2023-03-07T06:31:01.043Z,18
2023-03-07T06:32:01.540Z,18.2
2023-03-07T06:33:00.890Z,18.5
2023-03-07T06:34:01.109Z,18.7
2023-03-07T06:35:01.132Z,19.1
2023-03-07T06:36:01.157Z,19.3
2023-03-07T06:37:01.132Z,19.5
2023-03-07T06:38:01.057Z,19.6
2023-03-07T06:39:01.472Z,19.6
2023-03-07T06:40:01.190Z,19.7
2023-03-07T06:41:01.179Z,20.1
2023-03-07T06:42:01.992Z,20.4
2023-03-07T06:43:00.862Z,20.7
2023-03-07T06:44:00.588Z,20.8
2023-03-07T06:45:00.306Z,21
2023-03-07T06:46:00.135Z,21.2
2023-03-07T06:46:59.960Z,21.6
2023-03-07T06:47:59.654Z,22.3
2023-03-07T06:49:01.587Z,22.7
2023-03-07T06:50:01.137Z,23.2
2023-03-07T06:51:01.112Z,23.6
2023-03-07T06:52:01.132Z,23.9
2023-03-07T06:53:00.816Z,24.2
2023-03-07T06:54:01.646Z,24.5
2023-03-07T06:55:01.314Z,24.8
2023-03-07T06:56:01.509Z,25.1
2023-03-07T06:57:01.580Z,25.4
2023-03-07T06:58:01.576Z,25.7
2023-03-07T06:59:01.374Z,26.2
2023-03-07T07:00:02.045Z,26.6
2023-03-07T07:01:01.093Z,26.9
2023-03-07T07:02:01.840Z,27.2
2023-03-07T07:03:01.222Z,27.7
2023-03-07T07:04:01.062Z,28.1
2023-03-07T07:05:01.540Z,28.3
2023-03-07T07:06:01.298Z,28.4
2023-03-07T07:07:01.121Z,28.5
2023-03-07T07:08:01.124Z,28.9
2023-03-07T07:09:01.136Z,29.2
2023-03-07T07:10:01.056Z,29.4
2023-03-07T07:11:01.144Z,29.7
2023-03-07T07:12:01.142Z,29.8
2023-03-07T07:13:00.976Z,30
2023-03-07T07:14:01.184Z,30.1
2023-03-07T07:15:01.202Z,30.1
2023-03-07T07:16:02.078Z,30.3
2023-03-07T07:17:01.088Z,30.7
2023-03-07T07:18:01.086Z,31.2
2023-03-07T07:19:01.082Z,31.5
2023-03-07T07:20:01.097Z,31.5
2023-03-07T07:21:01.095Z,31.6
2023-03-07T07:22:01.109Z,31.8
2023-03-07T07:23:01.110Z,31.7
2023-03-07T07:24:01.133Z,31.9
2023-03-07T07:25:01.127Z,31.9
2023-03-07T07:26:01.143Z,31.9
2023-03-07T07:27:01.157Z,32.1
2023-03-07T07:28:01.156Z,32.2
2023-03-07T07:29:01.152Z,32.1
2023-03-07T07:30:01.155Z,31.9
2023-03-07T07:31:01.992Z,32.1
2023-03-07T07:32:01.997Z,32.4
2023-03-07T07:33:02.411Z,32.6
2023-03-07T07:34:01.755Z,32.7
2023-03-07T07:35:01.116Z,32.7
2023-03-07T07:36:01.165Z,32.6
2023-03-07T07:37:01.095Z,32.7
2023-03-07T07:38:01.120Z,32.7
2023-03-07T07:39:00.781Z,32.8
2023-03-07T07:40:00.384Z,32.5
2023-03-07T07:41:00.327Z,32.5
2023-03-07T07:41:59.896Z,32.4
2023-03-07T07:42:59.487Z,32.6
2023-03-07T07:44:01.715Z,32.7
2023-03-07T07:45:01.079Z,32.6
2023-03-07T07:46:01.242Z,32.7
2023-03-07T07:47:01.979Z,32.6
2023-03-07T07:48:01.200Z,32.6
2023-03-07T07:49:01.084Z,32.5
2023-03-07T07:50:03.810Z,32.6
2023-03-07T07:51:01.088Z,32.5
2023-03-07T07:52:01.092Z,32.5
2023-03-07T07:53:00.894Z,32.5
2023-03-07T07:54:01.238Z,32.4
2023-03-07T07:55:06.779Z,32.3
2023-03-07T07:56:01.249Z,32.2
2023-03-07T07:57:01.138Z,31.9
2023-03-07T07:58:01.126Z,31.9
2023-03-07T07:59:01.159Z,31.8
2023-03-07T08:00:08.878Z,31.8
2023-03-07T08:01:01.179Z,31.8
2023-03-07T08:02:01.232Z,31.9
2023-03-07T08:03:01.176Z,31.8
2023-03-07T08:04:01.188Z,31.8
2023-03-07T08:05:11.141Z,31.8
2023-03-07T08:06:01.076Z,31.8
2023-03-07T08:07:01.113Z,31.9
2023-03-07T08:08:01.094Z,32
2023-03-07T08:09:01.219Z,31.9
2023-03-07T08:10:14.420Z,31.9
2023-03-07T08:11:01.464Z,31.9
2023-03-07T08:12:01.120Z,31.9
2023-03-07T08:13:00.821Z,32
2023-03-07T08:14:01.166Z,32
2023-03-07T08:15:17.004Z,32
2023-03-07T08:16:01.859Z,32
2023-03-07T08:17:01.154Z,32
2023-03-07T08:18:01.223Z,32
2023-03-07T08:19:01.177Z,32
2023-03-07T08:20:01.707Z,32
2023-03-07T08:21:02.088Z,32
2023-03-07T08:22:01.491Z,31.4
2023-03-07T08:23:01.062Z,31.1
2023-03-07T08:24:01.205Z,31.1
2023-03-07T08:25:01.710Z,30.7
2023-03-07T08:26:01.783Z,31.1
2023-03-07T08:27:01.114Z,31.4
2023-03-07T08:28:01.951Z,31.5
2023-03-07T08:29:01.122Z,31.5
2023-03-07T08:30:01.654Z,31.2
2023-03-07T08:31:01.185Z,30.8
2023-03-07T08:32:01.144Z,30.5
2023-03-07T08:33:00.861Z,30.7
2023-03-07T08:34:00.591Z,30.8
2023-03-07T08:35:00.244Z,30.7
2023-03-07T08:35:59.916Z,30.4
2023-03-07T08:36:59.656Z,30.3
2023-03-07T08:38:01.277Z,30.7
2023-03-07T08:39:01.287Z,30.5
2023-03-07T08:40:02.514Z,30.4
2023-03-07T08:41:02.021Z,30
2023-03-07T08:42:01.293Z,30
2023-03-07T08:43:01.115Z,29.5
2023-03-07T08:44:01.121Z,29.3
2023-03-07T08:45:01.120Z,28.9
2023-03-07T08:46:01.475Z,29.1
2023-03-07T08:47:01.527Z,28.8
2023-03-07T08:48:01.277Z,28.3
2023-03-07T08:49:03.975Z,28.2
2023-03-07T08:50:02.411Z,28
2023-03-07T08:51:01.170Z,28.2
2023-03-07T08:52:01.883Z,28.2
2023-03-07T08:53:01.711Z,27.8
2023-03-07T08:54:01.089Z,28.1
2023-03-07T08:55:01.105Z,27
2023-03-07T08:56:01.433Z,26.5
2023-03-07T08:57:01.476Z,26.3
2023-03-07T08:58:02.150Z,25.7
2023-03-07T08:59:01.112Z,25.7
2023-03-07T09:00:00.813Z,25.5
2023-03-07T09:01:00.705Z,25.1
2023-03-07T09:02:00.588Z,25.1
2023-03-07T09:03:00.403Z,24.8
2023-03-07T09:04:00.147Z,24.4
2023-03-07T09:05:00.019Z,24.3
2023-03-07T09:05:59.813Z,25.1
2023-03-07T09:07:02.218Z,25.5
2023-03-07T09:08:01.446Z,25.2
2023-03-07T09:09:01.179Z,24.6
2023-03-07T09:10:01.064Z,23.5
2023-03-07T09:11:01.122Z,23
2023-03-07T09:12:01.220Z,22.4
2023-03-07T09:13:00.768Z,22.4
2023-03-07T09:14:00.711Z,22.4
2023-03-07T09:15:00.713Z,22.2
2023-03-07T09:16:00.583Z,21.9
2023-03-07T09:17:00.173Z,22.1
2023-03-07T09:17:59.772Z,22
2023-03-07T09:19:01.808Z,21.7
2023-03-07T09:20:01.431Z,21.4
2023-03-07T09:21:02.161Z,22
2023-03-07T09:22:01.164Z,21.5
2023-03-07T09:23:01.143Z,20.6
2023-03-07T09:24:01.155Z,20.6
2023-03-07T09:25:01.166Z,20.7
2023-03-07T09:26:01.185Z,20.7
2023-03-07T09:27:01.076Z,20.6
2023-03-07T09:28:01.403Z,20.7
2023-03-07T09:29:01.086Z,20.8
2023-03-07T09:30:01.131Z,20.8
2023-03-07T09:31:01.138Z,20.5
2023-03-07T09:32:01.128Z,19.1
2023-03-07T09:33:00.779Z,18.6
2023-03-07T09:34:00.754Z,18.7
2023-03-07T09:35:00.815Z,18.6
2023-03-07T09:36:01.946Z,18.6
2023-03-07T09:37:01.272Z,18.7
2023-03-07T09:38:01.978Z,18.2
2023-03-07T09:39:01.980Z,17.6
2023-03-07T09:40:01.181Z,17.5
2023-03-07T09:41:04.859Z,16.9
2023-03-07T09:42:01.229Z,17.1
2023-03-07T09:43:01.277Z,17.3
2023-03-07T09:44:02.212Z,17.2
2023-03-07T09:45:01.234Z,17.6
2023-03-07T09:46:07.859Z,17.7
2023-03-07T09:47:01.916Z,16.5
2023-03-07T09:48:01.132Z,16.3
2023-03-07T09:49:01.058Z,16.6
2023-03-07T09:50:01.104Z,16.4
2023-03-07T09:51:12.015Z,16.2
2023-03-07T09:52:02.147Z,15.7
2023-03-07T09:53:00.831Z,15.8
2023-03-07T09:54:01.146Z,15.7
2023-03-07T09:55:01.144Z,15.6
2023-03-07T09:56:13.435Z,15.7
2023-03-07T09:57:01.372Z,15.2
2023-03-07T09:58:01.179Z,15
2023-03-07T09:59:03.627Z,14.8
2023-03-07T10:00:01.106Z,15.3
2023-03-07T10:01:14.620Z,14.9
2023-03-07T10:02:01.620Z,15
2023-03-07T10:03:01.304Z,15.9
2023-03-07T10:04:02.165Z,15.3
2023-03-07T10:05:01.112Z,14.3
2023-03-07T10:06:16.546Z,13.6
2023-03-07T10:07:01.234Z,13.6
2023-03-07T10:08:01.123Z,13.2
2023-03-07T10:09:01.137Z,13.2
2023-03-07T10:10:01.157Z,13.5
2023-03-07T10:11:01.156Z,13.6
2023-03-07T10:12:03.885Z,13.5
2023-03-07T10:13:01.400Z,13.3
2023-03-07T10:14:01.543Z,13.4
2023-03-07T10:15:01.419Z,14.2
2023-03-07T10:16:01.129Z,13.2
2023-03-07T10:17:01.197Z,13
2023-03-07T10:18:02.719Z,13.1
2023-03-07T10:19:01.908Z,13.4
2023-03-07T10:20:01.458Z,13.3
2023-03-07T10:21:01.215Z,13.5
2023-03-07T10:22:02.170Z,14.3
2023-03-07T10:23:01.565Z,13.7
2023-03-07T10:24:01.131Z,13.9
2023-03-07T10:25:01.135Z,13.9
2023-03-07T10:26:01.208Z,14.2
2023-03-07T10:27:01.917Z,14.1
2023-03-07T10:28:02.928Z,13.6
2023-03-07T10:29:00.743Z,14
2023-03-07T10:30:00.465Z,14.6
2023-03-07T10:31:00.479Z,14.4
2023-03-07T10:32:00.233Z,14.4
2023-03-07T10:33:01.333Z,14.4
2023-03-07T10:34:01.693Z,13.6
2023-03-07T10:35:01.759Z,13.7
2023-03-07T10:36:01.857Z,13.9
2023-03-07T10:37:08.875Z,14.4
2023-03-07T10:38:01.397Z,14.8
2023-03-07T10:39:01.146Z,14.7
2023-03-07T10:40:03.327Z,14.8
2023-03-07T10:41:01.514Z,14.5
2023-03-07T10:42:01.135Z,14.6
2023-03-07T10:43:01.141Z,14.2
2023-03-07T10:44:01.147Z,14.5
2023-03-07T10:45:01.228Z,14.7
2023-03-07T10:46:01.208Z,15.3
2023-03-07T10:47:01.298Z,15.5
2023-03-07T10:48:01.062Z,15.3
2023-03-07T10:49:01.464Z,15.7
2023-03-07T10:50:00.671Z,16
2023-03-07T10:51:01.103Z,15.8
2023-03-07T10:52:01.117Z,15.5
2023-03-07T10:53:00.879Z,15.2
2023-03-07T10:54:01.057Z,15.4
2023-03-07T10:55:01.048Z,15.6
2023-03-07T10:56:01.122Z,15.8
2023-03-07T10:57:01.532Z,16.1
2023-03-07T10:58:02.558Z,15.9
2023-03-07T10:59:01.152Z,15.8
2023-03-07T11:00:01.149Z,16
2023-03-07T11:01:02.119Z,16.2
2023-03-07T11:02:01.607Z,16.1
2023-03-07T11:03:02.049Z,17.1
2023-03-07T11:04:01.246Z,16.7
2023-03-07T11:05:01.135Z,16.6
2023-03-07T11:06:02.741Z,16.2
2023-03-07T11:07:01.083Z,16.2
2023-03-07T11:08:01.116Z,15.5
2023-03-07T11:09:02.110Z,15.8
2023-03-07T11:10:01.103Z,16
2023-03-07T11:11:01.122Z,16.2
2023-03-07T11:12:01.914Z,16.2
2023-03-07T11:13:00.929Z,16.5
2023-03-07T11:14:01.125Z,16.7
2023-03-07T11:15:01.123Z,17.1
2023-03-07T11:16:10.993Z,17
2023-03-07T11:17:00.952Z,17
2023-03-07T11:18:01.148Z,17
2023-03-07T11:19:01.153Z,17
2023-03-07T11:20:00.850Z,17
2023-03-07T11:21:00.555Z,17.7
2023-03-07T11:22:04.124Z,17.2
2023-03-07T11:23:01.165Z,18.4
2023-03-07T11:24:01.107Z,18.4
2023-03-07T11:25:01.082Z,17.4
2023-03-07T11:26:01.107Z,17.6
2023-03-07T11:27:06.719Z,17.8
2023-03-07T11:28:01.098Z,18.1
2023-03-07T11:29:01.111Z,18.1
2023-03-07T11:30:01.112Z,18.6
2023-03-07T11:31:01.308Z,18.7
2023-03-07T11:32:09.137Z,19.1
2023-03-07T11:33:00.923Z,19.3
2023-03-07T11:34:01.050Z,19.7
2023-03-07T11:35:01.150Z,19.9
2023-03-07T11:36:01.220Z,20
2023-03-07T11:37:11.112Z,19.9
2023-03-07T11:38:02.300Z,19.8
2023-03-07T11:39:01.539Z,19.8
2023-03-07T11:40:01.099Z,19.8
2023-03-07T11:41:01.100Z,19.8
2023-03-07T11:42:14.817Z,20.3
2023-03-07T11:43:01.122Z,20.4
2023-03-07T11:44:01.260Z,21
2023-03-07T11:45:01.279Z,21.1
2023-03-07T11:46:01.469Z,21.4
2023-03-07T11:47:16.835Z,21.3
2023-03-07T11:48:01.076Z,21.4
2023-03-07T11:49:01.138Z,22
2023-03-07T11:50:01.154Z,22.2
2023-03-07T11:51:01.154Z,22.3
2023-03-07T11:52:01.167Z,21.9
2023-03-07T11:53:00.846Z,21.9
2023-03-07T11:54:01.243Z,21.9
2023-03-07T11:55:01.246Z,21.9
2023-03-07T11:56:01.265Z,21.7
2023-03-07T11:57:01.263Z,21.5
2023-03-07T11:58:01.115Z,21.9
2023-03-07T11:59:01.107Z,21.1
2023-03-07T12:00:03.198Z,21
2023-03-07T12:01:01.208Z,21.5
2023-03-07T12:02:01.879Z,21.5
2023-03-07T12:03:02.133Z,21.6
2023-03-07T12:04:00.514Z,21.7
2023-03-07T12:05:00.429Z,22
2023-03-07T12:06:00.369Z,22
2023-03-07T12:07:00.049Z,22.3
2023-03-07T12:07:59.717Z,21.3
2023-03-07T12:09:01.784Z,20.5
2023-03-07T12:10:04.034Z,20.3
2023-03-07T12:11:01.756Z,20.7
2023-03-07T12:12:02.542Z,21.1
2023-03-07T12:13:01.517Z,20.9
2023-03-07T12:14:01.158Z,21
2023-03-07T12:15:02.233Z,19.7
2023-03-07T12:16:02.137Z,19.4
2023-03-07T12:17:01.278Z,19.5
2023-03-07T12:18:01.125Z,18.8
2023-03-07T12:19:01.133Z,18.5
2023-03-07T12:20:01.502Z,16.7
2023-03-07T12:21:01.172Z,17.3
2023-03-07T12:22:01.163Z,17.9
2023-03-07T12:23:01.216Z,17.3
2023-03-07T12:24:01.478Z,16.7
2023-03-07T12:25:01.636Z,17.1
2023-03-07T12:26:02.316Z,16.8
2023-03-07T12:27:02.352Z,17
2023-03-07T12:28:02.010Z,17.1
2023-03-07T12:29:02.020Z,17
2023-03-07T12:30:01.232Z,16.6
2023-03-07T12:31:01.116Z,16.7
2023-03-07T12:32:01.234Z,16.6
2023-03-07T12:33:00.920Z,16.6
2023-03-07T12:34:01.238Z,16.9
2023-03-07T12:35:01.132Z,17.2
2023-03-07T12:36:01.237Z,17.9
2023-03-07T12:37:01.349Z,18.3
2023-03-07T12:38:02.421Z,17.6
2023-03-07T12:39:02.504Z,17.9
2023-03-07T12:40:02.043Z,18.1
2023-03-07T12:41:02.179Z,16.8
2023-03-07T12:42:01.275Z,15.8
2023-03-07T12:43:01.452Z,14.7
2023-03-07T12:44:02.328Z,15
2023-03-07T12:45:01.763Z,15.3
2023-03-07T12:46:01.833Z,15
2023-03-07T12:47:01.117Z,14.7
2023-03-07T12:48:01.069Z,14.5
2023-03-07T12:49:01.074Z,14.2
2023-03-07T12:50:01.435Z,14.1
2023-03-07T12:51:01.494Z,13.8
2023-03-07T12:52:01.520Z,14.1
2023-03-07T12:53:01.139Z,14.1
2023-03-07T12:54:00.844Z,14.8
2023-03-07T12:55:00.554Z,14.6
2023-03-07T12:56:00.140Z,14.7
2023-03-07T12:56:59.806Z,14.8
2023-03-07T12:58:01.465Z,14.1
2023-03-07T12:59:01.072Z,13.8
2023-03-07T13:00:01.167Z,13.6
2023-03-07T13:01:01.270Z,13.4
2023-03-07T13:02:01.114Z,13.8
2023-03-07T13:03:01.107Z,14.4
2023-03-07T13:04:01.226Z,14.7
2023-03-07T13:05:01.167Z,15.4
2023-03-07T13:06:01.146Z,14.6
2023-03-07T13:07:01.136Z,14.6
2023-03-07T13:08:01.233Z,14.6
2023-03-07T13:09:01.143Z,14.4
2023-03-07T13:10:02.128Z,13.2
2023-03-07T13:11:01.152Z,12.9
2023-03-07T13:12:01.154Z,13.3
2023-03-07T13:13:01.170Z,13.5
2023-03-07T13:14:01.552Z,13.3
2023-03-07T13:15:01.569Z,13.5
2023-03-07T13:16:01.154Z,13.1
2023-03-07T13:17:01.084Z,13.2
2023-03-07T13:18:01.101Z,13.2
2023-03-07T13:19:01.094Z,13.3
2023-03-07T13:20:01.112Z,13.6
2023-03-07T13:21:01.134Z,13.4
2023-03-07T13:22:01.130Z,13
2023-03-07T13:23:01.924Z,12.7
2023-03-07T13:24:01.135Z,13